createdAt,value
2019-03-25T00:00:08.868Z,129.57
2019-03-25T00:02:37.170Z,122.53
2019-03-25T00:05:06.589Z,124.87
2019-03-25T00:07:34.883Z,127.17
2019-03-25T00:10:03.931Z,122.33
2019-03-25T00:12:32.217Z,119.63
2019-03-25T00:15:00.527Z,123.53
2019-03-25T00:17:28.790Z,125.60
2019-03-25T00:19:57.143Z,125.07
2019-03-25T00:22:25.402Z,127.00
2019-03-25T00:24:53.745Z,126.10
2019-03-25T00:27:22.021Z,131.77
2019-03-25T00:29:50.295Z,123.23
2019-03-25T00:32:18.564Z,130.63
2019-03-25T00:34:46.823Z,130.17
2019-03-25T00:37:15.081Z,131.97
2019-03-25T00:39:43.357Z,130.47
2019-03-25T00:42:11.613Z,124.67
2019-03-25T00:44:39.883Z,122.90
2019-03-25T00:47:08.281Z,123.40
2019-03-25T00:49:36.563Z,128.47
2019-03-25T00:52:04.835Z,129.17
2019-03-25T00:54:33.094Z,123.20
2019-03-25T00:57:01.428Z,123.13
2019-03-25T00:59:29.701Z,121.30
2019-03-25T01:01:57.988Z,130.70
2019-03-25T01:04:26.268Z,127.73
2019-03-25T01:06:54.604Z,131.50
2019-03-25T01:09:22.870Z,121.57
2019-03-25T01:11:51.144Z,126.97
2019-03-25T01:14:19.405Z,129.23
2019-03-25T01:16:47.759Z,133.13
2019-03-25T01:19:16.037Z,124.90
2019-03-25T01:21:44.398Z,115.07
2019-03-25T01:24:12.698Z,124.93
2019-03-25T01:26:41.010Z,126.97
2019-03-25T01:29:09.349Z,120.97
2019-03-25T01:31:37.644Z,117.50
2019-03-25T01:34:05.980Z,124.33
2019-03-25T01:36:34.277Z,120.57
2019-03-25T01:39:02.695Z,119.13
2019-03-25T01:41:30.986Z,119.47
2019-03-25T01:43:59.282Z,124.20
2019-03-25T01:46:27.676Z,125.40
2019-03-25T01:48:55.982Z,132.60
2019-03-25T01:51:24.265Z,128.20
2019-03-25T01:53:52.547Z,130.33
2019-03-25T01:56:21.007Z,130.57
2019-03-25T01:58:49.275Z,117.53
2019-03-25T02:01:17.615Z,118.30
2019-03-25T02:03:45.904Z,123.30
2019-03-25T02:06:14.172Z,115.00
2019-03-25T02:08:42.739Z,109.23
2019-03-25T02:11:11.087Z,109.17
2019-03-25T02:13:39.377Z,100.73
2019-03-25T02:16:07.787Z,109.43
2019-03-25T02:18:36.175Z,111.70
2019-03-25T02:21:05.234Z,105.43
2019-03-25T02:23:33.580Z,97.87
2019-03-25T02:26:01.829Z,94.53
2019-03-25T02:28:30.087Z,106.60
2019-03-25T02:30:58.418Z,106.50
2019-03-25T02:33:26.842Z,96.33
2019-03-25T02:35:55.181Z,101.17
2019-03-25T02:38:23.470Z,102.80
2019-03-25T02:40:51.926Z,103.63
2019-03-25T02:43:20.197Z,116.63
2019-03-25T02:45:48.513Z,107.07
2019-03-25T02:48:16.848Z,109.57
2019-03-25T02:50:45.180Z,107.23
2019-03-25T02:53:13.546Z,101.07
2019-03-25T02:55:42.671Z,104.30
2019-03-25T02:58:11.125Z,103.83
2019-03-25T03:00:39.431Z,100.43
2019-03-25T03:03:07.968Z,102.07
2019-03-25T03:05:36.828Z,112.33
2019-03-25T03:08:05.100Z,94.23
2019-03-25T03:10:33.409Z,102.33
2019-03-25T03:13:01.719Z,99.87
2019-03-25T03:15:30.040Z,90.20
2019-03-25T03:17:58.373Z,96.73
2019-03-25T03:20:26.789Z,96.80
2019-03-25T03:22:55.213Z,92.07
2019-03-25T03:25:23.528Z,82.47
2019-03-25T03:27:51.980Z,84.03
2019-03-25T03:30:20.314Z,77.60
2019-03-25T03:32:48.598Z,80.57
2019-03-25T03:35:16.894Z,76.30
2019-03-25T03:37:45.294Z,75.33
2019-03-25T03:40:13.592Z,73.30
2019-03-25T03:42:41.843Z,74.97
2019-03-25T03:45:10.713Z,64.33
2019-03-25T03:47:39.092Z,64.30
2019-03-25T03:50:07.562Z,67.87
2019-03-25T03:52:36.207Z,67.70
2019-03-25T03:55:05.849Z,67.00
2019-03-25T03:57:34.103Z,65.10
2019-03-25T04:00:02.590Z,69.20
2019-03-25T04:02:30.838Z,67.57
2019-03-25T04:04:59.088Z,65.93
2019-03-25T04:07:27.391Z,62.80
2019-03-25T04:09:55.683Z,62.07
2019-03-25T04:12:23.982Z,64.27
2019-03-25T04:14:52.262Z,64.83
2019-03-25T04:17:20.552Z,59.23
2019-03-25T04:19:48.882Z,64.33
2019-03-25T04:22:17.230Z,55.93
2019-03-25T04:24:45.712Z,54.50
2019-03-25T04:27:15.815Z,54.87
2019-03-25T04:29:44.111Z,50.77
2019-03-25T04:32:12.777Z,51.53
2019-03-25T04:34:41.042Z,56.87
2019-03-25T04:37:09.389Z,57.60
2019-03-25T04:39:37.777Z,49.90
2019-03-25T04:42:09.082Z,47.47
2019-03-25T04:44:37.498Z,50.90
2019-03-25T04:47:05.821Z,48.30
2019-03-25T04:49:34.305Z,49.60
2019-03-25T04:52:02.850Z,47.57
2019-03-25T04:54:31.324Z,55.13
2019-03-25T04:56:59.783Z,44.80
2019-03-25T04:59:28.041Z,51.37
2019-03-25T05:01:56.316Z,46.40
2019-03-25T05:04:32.535Z,47.50
2019-03-25T05:07:00.939Z,43.97
2019-03-25T05:09:29.462Z,40.70
2019-03-25T05:11:57.953Z,45.33
2019-03-25T05:14:26.376Z,44.30
2019-03-25T05:16:54.812Z,56.57
2019-03-25T05:19:23.326Z,43.57
2019-03-25T05:21:51.771Z,48.87
2019-03-25T05:24:20.050Z,46.07
2019-03-25T05:26:51.339Z,46.60
2019-03-25T05:29:18.361Z,45.20
2019-03-25T05:31:48.487Z,44.50
2019-03-25T05:34:17.018Z,42.97
2019-03-25T05:36:45.404Z,43.63
2019-03-25T05:39:14.933Z,38.97
2019-03-25T05:41:43.479Z,36.03
2019-03-25T05:44:11.839Z,35.13
2019-03-25T05:46:40.254Z,42.27
2019-03-25T05:49:08.627Z,39.43
2019-03-25T05:51:37.082Z,39.43
2019-03-25T05:54:05.527Z,38.10
2019-03-25T05:56:34.496Z,37.23
2019-03-25T05:59:02.754Z,33.47
2019-03-25T06:01:31.563Z,36.23
2019-03-25T06:03:59.840Z,30.07
2019-03-25T06:06:28.154Z,34.90
2019-03-25T06:08:56.430Z,32.73
2019-03-25T06:11:24.788Z,36.70
2019-03-25T06:13:53.023Z,30.07
2019-03-25T06:16:21.297Z,26.73
2019-03-25T06:18:49.598Z,25.93
2019-03-25T06:21:17.982Z,26.93
2019-03-25T06:23:46.371Z,28.77
2019-03-25T06:26:14.862Z,27.20
2019-03-25T06:28:43.334Z,25.87
2019-03-25T06:31:11.783Z,25.53
2019-03-25T06:33:40.094Z,26.80
2019-03-25T06:36:08.421Z,25.17
2019-03-25T06:38:36.860Z,25.43
2019-03-25T06:41:05.193Z,26.67
2019-03-25T06:43:33.463Z,43.53
2019-03-25T06:46:01.775Z,25.30
2019-03-25T06:48:30.066Z,23.77
2019-03-25T06:50:58.366Z,25.63
2019-03-25T06:53:26.660Z,25.40
2019-03-25T06:55:55.059Z,21.00
2019-03-25T06:58:23.326Z,25.70
2019-03-25T07:00:51.761Z,26.20
2019-03-25T07:03:20.074Z,26.13
2019-03-25T07:05:48.417Z,33.57
2019-03-25T07:08:16.716Z,25.20
2019-03-25T07:10:45.002Z,24.13
2019-03-25T07:13:13.251Z,29.63
2019-03-25T07:15:44.067Z,26.47
2019-03-25T07:18:11.528Z,31.10
2019-03-25T07:20:39.824Z,23.30
2019-03-25T07:23:10.586Z,26.57
2019-03-25T07:25:39.004Z,26.27
2019-03-25T07:28:07.459Z,28.70
2019-03-25T07:30:35.737Z,28.90
2019-03-25T07:33:04.036Z,25.53
2019-03-25T07:35:32.349Z,26.97
2019-03-25T07:38:00.702Z,24.93
2019-03-25T07:40:29.072Z,21.67
2019-03-25T07:42:57.356Z,26.90
2019-03-25T07:45:25.683Z,23.90
2019-03-25T07:47:53.944Z,24.90
2019-03-25T07:50:22.202Z,31.57
2019-03-25T07:52:50.475Z,24.53
2019-03-25T07:55:18.734Z,29.47
2019-03-25T07:57:48.499Z,26.13
2019-03-25T08:00:17.302Z,22.70
2019-03-25T08:02:45.565Z,24.37
2019-03-25T08:05:13.986Z,26.13
2019-03-25T08:07:42.257Z,21.73
2019-03-25T08:10:10.554Z,24.80
2019-03-25T08:12:38.802Z,20.03
2019-03-25T08:15:07.413Z,23.43
2019-03-25T08:17:35.685Z,15.40
2019-03-25T08:20:08.430Z,20.33
2019-03-25T08:22:36.689Z,13.93
2019-03-25T08:25:06.519Z,13.90
2019-03-25T08:27:34.773Z,17.77
2019-03-25T08:30:03.394Z,17.73
2019-03-25T08:32:31.666Z,22.17
2019-03-25T08:34:59.946Z,13.33
2019-03-25T08:37:28.201Z,15.20
2019-03-25T08:39:56.459Z,13.37
2019-03-25T08:42:26.371Z,12.13
2019-03-25T08:44:54.631Z,16.67
2019-03-25T08:47:22.986Z,13.73
2019-03-25T08:49:51.221Z,10.13
2019-03-25T08:52:19.507Z,22.87
2019-03-25T08:54:47.894Z,14.43
2019-03-25T08:57:18.016Z,15.00
2019-03-25T08:59:46.489Z,13.37
2019-03-25T09:02:14.933Z,15.90
2019-03-25T09:04:43.211Z,13.67
2019-03-25T09:07:11.474Z,12.53
2019-03-25T09:09:39.724Z,12.07
2019-03-25T09:12:07.982Z,20.70
2019-03-25T09:14:36.240Z,10.47
2019-03-25T09:17:04.567Z,15.37
2019-03-25T09:19:32.833Z,16.67
2019-03-25T09:22:01.121Z,13.17
2019-03-25T09:24:29.371Z,12.90
2019-03-25T09:26:57.630Z,10.17
2019-03-25T09:29:26.126Z,15.47
2019-03-25T09:31:54.373Z,18.03
2019-03-25T09:34:22.771Z,11.60
2019-03-25T09:36:51.149Z,10.27
2019-03-25T09:39:19.418Z,11.73
2019-03-25T09:41:47.704Z,11.47
2019-03-25T09:44:15.951Z,11.33
2019-03-25T09:46:44.215Z,10.93
2019-03-25T09:49:12.475Z,14.90
2019-03-25T09:51:40.893Z,9.50
2019-03-25T09:54:09.252Z,11.73
2019-03-25T09:56:37.668Z,13.73
2019-03-25T09:59:05.932Z,10.70
2019-03-25T10:01:34.385Z,15.87
2019-03-25T10:04:02.701Z,15.17
2019-03-25T10:06:31.107Z,11.80
2019-03-25T10:08:59.429Z,12.40
2019-03-25T10:11:27.815Z,14.30
2019-03-25T10:13:56.214Z,10.13
2019-03-25T10:16:24.586Z,11.27
2019-03-25T10:18:52.947Z,16.17
2019-03-25T10:21:21.270Z,11.63
2019-03-25T10:23:49.585Z,10.37
2019-03-25T10:26:17.946Z,8.70
2019-03-25T10:28:48.843Z,10.87
2019-03-25T10:31:17.500Z,16.17
2019-03-25T10:33:45.983Z,14.40
2019-03-25T10:36:14.329Z,14.73
2019-03-25T10:38:42.681Z,10.43
2019-03-25T10:41:11.037Z,9.27
2019-03-25T10:43:39.448Z,9.63
2019-03-25T10:46:07.759Z,10.77
2019-03-25T10:48:36.190Z,12.47
2019-03-25T10:51:04.613Z,13.30
2019-03-25T10:53:32.878Z,11.87
2019-03-25T10:56:01.249Z,13.57
2019-03-25T10:58:29.687Z,10.13
2019-03-25T11:00:57.943Z,8.20
2019-03-25T11:03:26.192Z,11.57
2019-03-25T11:05:54.455Z,10.57
2019-03-25T11:08:22.715Z,11.13
2019-03-25T11:10:51.094Z,7.43
2019-03-25T11:13:19.389Z,10.47
2019-03-25T11:15:47.666Z,12.07
2019-03-25T11:18:15.992Z,8.53
2019-03-25T11:20:44.507Z,11.57
2019-03-25T11:23:12.821Z,12.50
2019-03-25T11:25:41.088Z,10.43
2019-03-25T11:28:09.338Z,11.27
2019-03-25T11:30:51.626Z,11.23
2019-03-25T11:33:20.007Z,9.90
2019-03-25T11:35:48.286Z,11.03
2019-03-25T11:38:16.568Z,6.47
2019-03-25T11:40:44.959Z,6.60
2019-03-25T11:43:13.307Z,9.07
2019-03-25T11:45:41.691Z,8.83
2019-03-25T11:48:10.024Z,9.20
2019-03-25T11:50:38.349Z,9.57
2019-03-25T11:53:06.720Z,8.37
2019-03-25T11:55:35.069Z,8.10
2019-03-25T11:58:03.467Z,12.20
2019-03-25T12:00:31.888Z,8.57
2019-03-25T12:03:00.152Z,9.03
2019-03-25T12:05:28.471Z,9.27
2019-03-25T12:07:56.760Z,16.40
2019-03-25T12:10:25.125Z,8.20
2019-03-25T12:12:53.475Z,14.27
2019-03-25T12:15:21.726Z,7.03
2019-03-25T12:17:50.072Z,11.17
2019-03-25T12:20:18.405Z,10.77
2019-03-25T12:22:46.748Z,7.97
2019-03-25T12:25:15.102Z,12.37
2019-03-25T12:27:43.534Z,8.23
2019-03-25T12:30:11.828Z,9.00
2019-03-25T12:32:40.148Z,8.47
2019-03-25T12:35:08.580Z,11.47
2019-03-25T12:37:36.892Z,8.83
2019-03-25T12:40:07.745Z,14.03
2019-03-25T12:42:35.628Z,11.33
2019-03-25T12:45:05.817Z,12.30
2019-03-25T12:47:34.126Z,13.73
2019-03-25T12:50:02.431Z,11.00
2019-03-25T12:52:31.067Z,9.27
2019-03-25T12:54:59.308Z,11.60
2019-03-25T12:57:27.719Z,9.87
2019-03-25T12:59:56.336Z,9.07
2019-03-25T13:02:24.841Z,11.93
2019-03-25T13:04:53.345Z,12.23
2019-03-25T13:07:21.623Z,10.83
2019-03-25T13:09:49.892Z,7.37
2019-03-25T13:12:18.285Z,6.97
2019-03-25T13:14:46.667Z,8.83
2019-03-25T13:17:15.288Z,10.93
2019-03-25T13:19:43.745Z,7.10
2019-03-25T13:22:12.019Z,9.20
2019-03-25T13:24:41.349Z,8.53
2019-03-25T13:27:10.521Z,8.10
2019-03-25T13:29:38.866Z,8.23
2019-03-25T13:32:07.215Z,9.47
2019-03-25T13:34:35.610Z,7.80
2019-03-25T13:37:04.032Z,7.97
2019-03-25T13:39:32.583Z,6.77
2019-03-25T13:42:01.004Z,7.83
2019-03-25T13:44:29.275Z,7.90
2019-03-25T13:46:57.531Z,10.17
2019-03-25T13:49:25.878Z,8.00
2019-03-25T13:51:54.183Z,7.80
2019-03-25T13:54:22.525Z,10.73
2019-03-25T13:56:50.809Z,8.83
2019-03-25T13:59:19.078Z,5.97
2019-03-25T14:01:47.360Z,9.37
2019-03-25T14:04:15.611Z,9.70
2019-03-25T14:06:43.916Z,12.97
2019-03-25T14:09:12.168Z,6.83
2019-03-25T14:11:40.431Z,10.10
2019-03-25T14:14:08.716Z,7.63
2019-03-25T14:16:37.066Z,13.70
2019-03-25T14:19:05.319Z,8.33
2019-03-25T14:21:33.586Z,9.30
2019-03-25T14:24:01.852Z,9.43
2019-03-25T14:26:30.116Z,10.00
2019-03-25T14:28:58.432Z,7.10
2019-03-25T14:31:26.756Z,7.17
2019-03-25T14:33:55.034Z,8.17
2019-03-25T14:36:23.287Z,5.83
2019-03-25T14:38:51.548Z,6.77
2019-03-25T14:41:19.835Z,22.70
2019-03-25T14:43:48.100Z,10.13
2019-03-25T14:46:16.368Z,9.50
2019-03-25T14:48:44.643Z,11.97
2019-03-25T14:51:13.033Z,6.70
2019-03-25T14:53:45.091Z,11.17
2019-03-25T14:56:11.247Z,6.03
2019-03-25T14:58:39.535Z,7.50
2019-03-25T15:01:07.799Z,11.60
2019-03-25T15:03:36.104Z,5.90
2019-03-25T15:06:04.470Z,7.83
2019-03-25T15:08:32.725Z,6.63
2019-03-25T15:11:00.982Z,7.47
2019-03-25T15:13:29.300Z,6.23
2019-03-25T15:15:57.525Z,7.10
2019-03-25T15:18:25.776Z,6.10
2019-03-25T15:20:54.044Z,11.43
2019-03-25T15:23:22.377Z,9.57
2019-03-25T15:25:50.657Z,9.43
2019-03-25T15:28:18.907Z,8.70
2019-03-25T15:30:47.166Z,10.27
2019-03-25T15:33:15.444Z,14.17
2019-03-25T15:35:43.742Z,9.27
2019-03-25T15:38:12.020Z,9.77
2019-03-25T15:40:40.276Z,9.73
2019-03-25T15:43:08.553Z,13.13
2019-03-25T15:45:36.810Z,7.87
2019-03-25T15:48:05.078Z,10.07
2019-03-25T15:50:33.322Z,9.13
2019-03-25T15:53:01.593Z,8.43
2019-03-25T15:55:29.835Z,7.43
2019-03-25T15:57:58.101Z,9.07
2019-03-25T16:00:26.365Z,7.60
2019-03-25T16:02:54.622Z,8.70
2019-03-25T16:05:22.882Z,9.20
2019-03-25T16:07:51.143Z,7.67
2019-03-25T16:10:19.398Z,10.97
2019-03-25T16:12:47.660Z,10.73
2019-03-25T16:15:19.255Z,10.27
2019-03-25T16:17:47.649Z,7.47
2019-03-25T16:20:15.911Z,12.90
2019-03-25T16:22:46.418Z,8.60
2019-03-25T16:25:17.599Z,10.33
2019-03-25T16:27:46.001Z,8.20
2019-03-25T16:30:14.501Z,7.80
2019-03-25T16:32:42.977Z,8.77
2019-03-25T16:35:11.658Z,8.40
2019-03-25T16:37:40.086Z,10.37
2019-03-25T16:40:08.412Z,12.77
2019-03-25T16:42:36.876Z,12.00
2019-03-25T16:45:05.386Z,11.97
2019-03-25T16:47:33.868Z,8.87
2019-03-25T16:50:02.277Z,10.30
2019-03-25T16:52:30.716Z,8.57
2019-03-25T16:54:59.090Z,11.00
2019-03-25T16:57:29.067Z,10.27
2019-03-25T16:59:57.329Z,8.27
2019-03-25T17:02:25.753Z,7.67
2019-03-25T17:04:54.179Z,7.63
2019-03-25T17:07:22.642Z,3.47
2019-03-25T17:09:50.911Z,3.87
2019-03-25T17:12:19.166Z,6.03
2019-03-25T17:14:47.505Z,4.47
2019-03-25T17:17:15.751Z,4.17
2019-03-25T17:19:44.008Z,3.53
2019-03-25T17:22:12.281Z,3.60
2019-03-25T17:24:40.541Z,3.30
2019-03-25T17:27:08.797Z,3.10
2019-03-25T17:29:37.041Z,3.40
2019-03-25T17:32:05.297Z,3.20
2019-03-25T17:34:33.609Z,4.77
2019-03-25T17:37:01.816Z,3.10
2019-03-25T17:39:30.074Z,3.23
2019-03-25T17:41:58.357Z,3.93
2019-03-25T17:44:26.635Z,4.50
2019-03-25T17:46:54.887Z,4.30
2019-03-25T17:49:23.138Z,4.67
2019-03-25T17:51:51.399Z,3.50
2019-03-25T17:54:19.662Z,4.57
2019-03-25T17:56:47.918Z,3.80
2019-03-25T17:59:16.181Z,2.90
2019-03-25T18:01:44.425Z,4.63
2019-03-25T18:04:12.682Z,3.93
2019-03-25T18:06:40.938Z,5.63
2019-03-25T18:09:09.189Z,3.17
2019-03-25T18:11:37.444Z,3.90
2019-03-25T18:14:05.692Z,4.20
2019-03-25T18:16:33.962Z,4.87
2019-03-25T18:19:02.215Z,6.67
2019-03-25T18:21:30.632Z,5.27
2019-03-25T18:23:58.892Z,6.67
2019-03-25T18:26:27.148Z,13.00
2019-03-25T18:28:55.413Z,10.13
2019-03-25T18:31:23.675Z,10.00
2019-03-25T18:33:51.926Z,6.67
2019-03-25T18:36:20.186Z,7.13
2019-03-25T18:38:48.436Z,6.10
2019-03-25T18:41:16.691Z,5.43
2019-03-25T18:43:45.055Z,7.80
2019-03-25T18:46:13.292Z,6.87
2019-03-25T18:48:41.539Z,5.93
2019-03-25T18:51:09.796Z,7.27
2019-03-25T18:53:38.057Z,6.43
2019-03-25T18:56:06.309Z,6.37
2019-03-25T18:58:34.588Z,7.30
2019-03-25T19:01:02.842Z,7.13
2019-03-25T19:03:31.168Z,9.63
2019-03-25T19:05:59.429Z,12.93
2019-03-25T19:08:27.690Z,16.13
2019-03-25T19:10:55.977Z,12.63
2019-03-25T19:13:25.170Z,13.77
2019-03-25T19:15:53.420Z,20.70
2019-03-25T19:18:21.719Z,12.90
2019-03-25T19:20:49.971Z,11.80
2019-03-25T19:23:18.244Z,11.00
2019-03-25T19:25:46.514Z,11.30
2019-03-25T19:28:14.803Z,9.73
2019-03-25T19:30:43.393Z,12.10
2019-03-25T19:33:13.269Z,10.13
2019-03-25T19:35:41.527Z,9.33
2019-03-25T19:38:10.253Z,7.93
2019-03-25T19:40:38.468Z,8.57
2019-03-25T19:43:06.792Z,8.17
2019-03-25T19:45:35.101Z,7.57
2019-03-25T19:48:03.388Z,8.57
2019-03-25T19:50:31.649Z,9.73
2019-03-25T19:52:59.927Z,9.63
2019-03-25T19:55:28.180Z,7.80
2019-03-25T19:57:56.477Z,10.93
2019-03-25T20:00:33.467Z,7.77
2019-03-25T20:03:01.722Z,8.43
2019-03-25T20:05:30.017Z,10.13
2019-03-25T20:07:58.362Z,7.73
2019-03-25T20:10:34.795Z,7.33
2019-03-25T20:13:03.140Z,9.53
2019-03-25T20:15:45.008Z,9.27
2019-03-25T20:18:01.456Z,10.13
2019-03-25T20:20:29.759Z,9.70
2019-03-25T20:22:58.021Z,9.20
2019-03-25T20:25:26.311Z,8.63
2019-03-25T20:27:54.580Z,9.77
2019-03-25T20:30:22.820Z,7.87
2019-03-25T20:32:51.116Z,8.93
2019-03-25T20:35:19.352Z,7.87
2019-03-25T20:37:48.484Z,10.40
2019-03-25T20:40:16.752Z,8.50
2019-03-25T20:42:45.011Z,8.47
2019-03-25T20:45:13.386Z,8.73
2019-03-25T20:47:41.633Z,8.97
2019-03-25T20:50:09.892Z,8.63
2019-03-25T20:52:38.165Z,8.27
2019-03-25T20:55:07.398Z,9.67
2019-03-25T20:57:35.645Z,8.13
2019-03-25T21:00:08.217Z,8.27
2019-03-25T21:02:44.962Z,7.80
2019-03-25T21:05:07.038Z,10.33
2019-03-25T21:07:35.350Z,11.47
2019-03-25T21:10:05.929Z,9.10
2019-03-25T21:12:34.230Z,7.73
2019-03-25T21:15:02.803Z,10.17
2019-03-25T21:17:31.198Z,10.13
2019-03-25T21:19:59.440Z,13.20
2019-03-25T21:22:27.693Z,9.90
2019-03-25T21:24:56.003Z,10.20
2019-03-25T21:27:24.251Z,9.77
2019-03-25T21:29:52.622Z,10.20
2019-03-25T21:32:20.949Z,12.23
2019-03-25T21:34:49.250Z,12.57
2019-03-25T21:37:17.582Z,9.87
2019-03-25T21:39:45.927Z,14.03
2019-03-25T21:42:14.431Z,9.50
2019-03-25T21:44:42.861Z,11.27
2019-03-25T21:47:11.231Z,8.57
2019-03-25T21:49:41.244Z,18.73
2019-03-25T21:52:09.599Z,14.30
2019-03-25T21:54:37.914Z,9.27
2019-03-25T21:57:06.290Z,9.23
2019-03-25T21:59:34.596Z,9.20
2019-03-25T22:02:02.970Z,9.80
2019-03-25T22:04:31.336Z,8.37
2019-03-25T22:06:59.693Z,7.77
2019-03-25T22:09:28.120Z,11.87
2019-03-25T22:11:56.457Z,8.53
2019-03-25T22:14:24.720Z,11.57
2019-03-25T22:16:53.070Z,10.63
2019-03-25T22:19:21.355Z,10.57
2019-03-25T22:21:49.649Z,10.03
2019-03-25T22:24:17.997Z,11.73
2019-03-25T22:26:46.329Z,10.80
2019-03-25T22:29:14.701Z,12.40
2019-03-25T22:31:43.019Z,10.87
2019-03-25T22:34:11.471Z,12.23
2019-03-25T22:36:39.824Z,9.07
2019-03-25T22:39:09.279Z,14.73
2019-03-25T22:41:37.609Z,17.33
2019-03-25T22:44:06.027Z,13.37
2019-03-25T22:46:34.317Z,12.37
2019-03-25T22:49:05.095Z,18.50
2019-03-25T22:51:33.426Z,24.90
2019-03-25T22:54:01.792Z,31.07
2019-03-25T22:56:30.071Z,27.50
2019-03-25T22:58:58.385Z,21.97
2019-03-25T23:01:26.815Z,15.27
2019-03-25T23:03:55.106Z,15.97
2019-03-25T23:06:23.456Z,11.63
2019-03-25T23:08:51.748Z,9.80
2019-03-25T23:11:20.129Z,11.13
2019-03-25T23:13:48.436Z,12.73
2019-03-25T23:16:16.717Z,10.50
2019-03-25T23:18:44.999Z,11.57
2019-03-25T23:21:13.285Z,13.30
2019-03-25T23:23:44.506Z,15.60
2019-03-25T23:26:12.895Z,13.67
2019-03-25T23:28:41.221Z,14.07
2019-03-25T23:31:09.529Z,15.07
2019-03-25T23:33:37.828Z,12.23
2019-03-25T23:36:06.169Z,13.67
2019-03-25T23:38:34.446Z,12.47
2019-03-25T23:41:02.735Z,10.97
2019-03-25T23:43:31.052Z,11.33
2019-03-25T23:45:59.308Z,12.37
2019-03-25T23:48:27.604Z,11.83
2019-03-25T23:50:56.015Z,11.60
2019-03-25T23:53:24.310Z,12.30
2019-03-25T23:55:52.682Z,12.60
2019-03-25T23:58:20.988Z,12.27
